sensor_id;sensor_type;location;lat;lon;timestamp;P1;durP1;ratioP1;P2;durP2;ratioP2
3549;SDS011;45572;48.804;8.330;2023-11-22T00:01:48;16.58;;;9.70;;
3549;SDS011;45572;48.804;8.330;2023-11-22T00:04:16;17.50;;;10.77;;
3549;SDS011;45572;48.804;8.330;2023-11-22T00:06:44;13.43;;;9.65;;
3549;SDS011;45572;48.804;8.330;2023-11-22T00:09:13;17.38;;;9.25;;
3549;SDS011;45572;48.804;8.330;2023-11-22T00:11:41;21.92;;;9.88;;
3549;SDS011;45572;48.804;8.330;2023-11-22T00:14:09;16.95;;;9.43;;
3549;SDS011;45572;48.804;8.330;2023-11-22T00:16:37;17.48;;;10.00;;
3549;SDS011;45572;48.804;8.330;2023-11-22T00:19:06;18.08;;;8.82;;
3549;SDS011;45572;48.804;8.330;2023-11-22T00:21:34;19.88;;;10.27;;
3549;SDS011;45572;48.804;8.330;2023-11-22T00:24:01;10.48;;;6.60;;
3549;SDS011;45572;48.804;8.330;2023-11-22T00:26:32;11.05;;;6.47;;
3549;SDS011;45572;48.804;8.330;2023-11-22T00:29:01;10.65;;;6.22;;
3549;SDS011;45572;48.804;8.330;2023-11-22T00:31:29;15.65;;;6.72;;
3549;SDS011;45572;48.804;8.330;2023-11-22T00:33:56;12.15;;;5.95;;
3549;SDS011;45572;48.804;8.330;2023-11-22T00:36:24;10.82;;;4.88;;
3549;SDS011;45572;48.804;8.330;2023-11-22T00:38:52;10.68;;;5.65;;
3549;SDS011;45572;48.804;8.330;2023-11-22T00:41:20;7.97;;;4.82;;
3549;SDS011;45572;48.804;8.330;2023-11-22T00:43:49;10.75;;;5.32;;
3549;SDS011;45572;48.804;8.330;2023-11-22T00:46:17;6.47;;;4.95;;
3549;SDS011;45572;48.804;8.330;2023-11-22T00:48:44;6.30;;;3.63;;
3549;SDS011;45572;48.804;8.330;2023-11-22T00:51:12;8.75;;;4.50;;
3549;SDS011;45572;48.804;8.330;2023-11-22T00:53:40;7.50;;;4.70;;
3549;SDS011;45572;48.804;8.330;2023-11-22T00:56:08;6.20;;;4.05;;
3549;SDS011;45572;48.804;8.330;2023-11-22T00:58:36;6.20;;;3.60;;
3549;SDS011;45572;48.804;8.330;2023-11-22T01:01:05;6.30;;;3.83;;
3549;SDS011;45572;48.804;8.330;2023-11-22T01:03:33;6.38;;;3.75;;
3549;SDS011;45572;48.804;8.330;2023-11-22T01:06:02;6.72;;;4.18;;
3549;SDS011;45572;48.804;8.330;2023-11-22T01:08:29;4.40;;;3.00;;
3549;SDS011;45572;48.804;8.330;2023-11-22T01:10:57;8.63;;;4.18;;
3549;SDS011;45572;48.804;8.330;2023-11-22T01:13:26;9.43;;;4.00;;
3549;SDS011;45572;48.804;8.330;2023-11-22T01:15:54;6.93;;;3.30;;
3549;SDS011;45572;48.804;8.330;2023-11-22T01:18:24;3.95;;;2.60;;
3549;SDS011;45572;48.804;8.330;2023-11-22T01:20:52;4.68;;;2.78;;
3549;SDS011;45572;48.804;8.330;2023-11-22T01:23:20;7.80;;;3.10;;
3549;SDS011;45572;48.804;8.330;2023-11-22T01:25:48;3.40;;;2.22;;
3549;SDS011;45572;48.804;8.330;2023-11-22T01:28:16;2.92;;;2.42;;
3549;SDS011;45572;48.804;8.330;2023-11-22T01:30:44;4.35;;;2.65;;
3549;SDS011;45572;48.804;8.330;2023-11-22T01:33:13;2.22;;;1.30;;
3549;SDS011;45572;48.804;8.330;2023-11-22T01:35:42;3.92;;;2.10;;
3549;SDS011;45572;48.804;8.330;2023-11-22T01:38:10;2.13;;;1.40;;
3549;SDS011;45572;48.804;8.330;2023-11-22T01:40:42;2.65;;;1.63;;
3549;SDS011;45572;48.804;8.330;2023-11-22T01:43:14;3.42;;;1.40;;
3549;SDS011;45572;48.804;8.330;2023-11-22T01:45:42;2.95;;;1.20;;
3549;SDS011;45572;48.804;8.330;2023-11-22T01:48:10;1.75;;;1.10;;
3549;SDS011;45572;48.804;8.330;2023-11-22T01:50:39;4.78;;;1.05;;
3549;SDS011;45572;48.804;8.330;2023-11-22T01:53:09;1.48;;;1.00;;
3549;SDS011;45572;48.804;8.330;2023-11-22T01:55:39;1.95;;;1.27;;
3549;SDS011;45572;48.804;8.330;2023-11-22T01:58:07;2.30;;;1.38;;
3549;SDS011;45572;48.804;8.330;2023-11-22T02:00:36;1.13;;;0.70;;
3549;SDS011;45572;48.804;8.330;2023-11-22T02:03:11;1.40;;;0.98;;
3549;SDS011;45572;48.804;8.330;2023-11-22T02:05:39;2.90;;;0.90;;
3549;SDS011;45572;48.804;8.330;2023-11-22T02:08:10;1.15;;;0.88;;
3549;SDS011;45572;48.804;8.330;2023-11-22T02:10:39;1.20;;;0.80;;
3549;SDS011;45572;48.804;8.330;2023-11-22T02:13:08;1.23;;;0.90;;
3549;SDS011;45572;48.804;8.330;2023-11-22T02:15:36;1.30;;;1.00;;
3549;SDS011;45572;48.804;8.330;2023-11-22T02:18:04;1.23;;;0.95;;
3549;SDS011;45572;48.804;8.330;2023-11-22T02:20:39;1.55;;;1.05;;
3549;SDS011;45572;48.804;8.330;2023-11-22T02:23:08;2.15;;;1.20;;
3549;SDS011;45572;48.804;8.330;2023-11-22T02:25:37;1.95;;;1.10;;
3549;SDS011;45572;48.804;8.330;2023-11-22T02:28:06;10.38;;;1.33;;
3549;SDS011;45572;48.804;8.330;2023-11-22T02:30:35;1.63;;;1.10;;
3549;SDS011;45572;48.804;8.330;2023-11-22T02:33:03;1.80;;;1.10;;
3549;SDS011;45572;48.804;8.330;2023-11-22T02:35:32;2.80;;;1.45;;
3549;SDS011;45572;48.804;8.330;2023-11-22T02:38:00;2.47;;;1.60;;
3549;SDS011;45572;48.804;8.330;2023-11-22T02:40:29;2.75;;;1.80;;
3549;SDS011;45572;48.804;8.330;2023-11-22T02:42:57;4.25;;;2.08;;
3549;SDS011;45572;48.804;8.330;2023-11-22T02:45:31;3.20;;;1.98;;
3549;SDS011;45572;48.804;8.330;2023-11-22T02:47:59;2.78;;;1.60;;
3549;SDS011;45572;48.804;8.330;2023-11-22T02:50:27;2.53;;;1.40;;
3549;SDS011;45572;48.804;8.330;2023-11-22T02:52:55;3.33;;;2.10;;
3549;SDS011;45572;48.804;8.330;2023-11-22T02:55:24;3.13;;;1.95;;
3549;SDS011;45572;48.804;8.330;2023-11-22T02:57:53;3.38;;;2.00;;
3549;SDS011;45572;48.804;8.330;2023-11-22T03:00:21;3.50;;;2.08;;
3549;SDS011;45572;48.804;8.330;2023-11-22T03:02:51;3.17;;;2.25;;
3549;SDS011;45572;48.804;8.330;2023-11-22T03:05:20;3.85;;;2.10;;
3549;SDS011;45572;48.804;8.330;2023-11-22T03:07:48;3.75;;;2.67;;
3549;SDS011;45572;48.804;8.330;2023-11-22T03:10:17;9.10;;;3.08;;
3549;SDS011;45572;48.804;8.330;2023-11-22T03:12:45;10.13;;;2.15;;
3549;SDS011;45572;48.804;8.330;2023-11-22T03:15:15;6.10;;;2.22;;
3549;SDS011;45572;48.804;8.330;2023-11-22T03:17:43;4.32;;;2.30;;
3549;SDS011;45572;48.804;8.330;2023-11-22T03:20:10;3.40;;;2.53;;
3549;SDS011;45572;48.804;8.330;2023-11-22T03:22:38;3.60;;;2.13;;
3549;SDS011;45572;48.804;8.330;2023-11-22T03:25:07;3.88;;;2.40;;
3549;SDS011;45572;48.804;8.330;2023-11-22T03:27:36;4.60;;;2.63;;
3549;SDS011;45572;48.804;8.330;2023-11-22T03:30:06;2.45;;;1.80;;
3549;SDS011;45572;48.804;8.330;2023-11-22T03:32:40;5.45;;;2.08;;
3549;SDS011;45572;48.804;8.330;2023-11-22T03:35:09;2.65;;;2.05;;
3549;SDS011;45572;48.804;8.330;2023-11-22T03:37:38;2.20;;;1.60;;
3549;SDS011;45572;48.804;8.330;2023-11-22T03:40:06;2.85;;;2.15;;
3549;SDS011;45572;48.804;8.330;2023-11-22T03:42:36;2.33;;;1.52;;
3549;SDS011;45572;48.804;8.330;2023-11-22T03:45:04;2.78;;;2.05;;
3549;SDS011;45572;48.804;8.330;2023-11-22T03:47:33;3.25;;;2.40;;
3549;SDS011;45572;48.804;8.330;2023-11-22T03:50:05;2.97;;;1.92;;
3549;SDS011;45572;48.804;8.330;2023-11-22T03:52:34;5.20;;;1.70;;
3549;SDS011;45572;48.804;8.330;2023-11-22T03:55:02;3.13;;;2.13;;
3549;SDS011;45572;48.804;8.330;2023-11-22T03:57:31;4.03;;;1.88;;
3549;SDS011;45572;48.804;8.330;2023-11-22T03:59:59;3.83;;;2.00;;
3549;SDS011;45572;48.804;8.330;2023-11-22T04:02:26;3.35;;;2.28;;
3549;SDS011;45572;48.804;8.330;2023-11-22T04:04:55;4.15;;;2.53;;
3549;SDS011;45572;48.804;8.330;2023-11-22T04:07:24;2.20;;;1.95;;
3549;SDS011;45572;48.804;8.330;2023-11-22T04:09:52;3.58;;;1.90;;
3549;SDS011;45572;48.804;8.330;2023-11-22T04:12:21;2.50;;;1.80;;
3549;SDS011;45572;48.804;8.330;2023-11-22T04:14:51;2.90;;;1.83;;
3549;SDS011;45572;48.804;8.330;2023-11-22T04:17:19;5.40;;;2.60;;
3549;SDS011;45572;48.804;8.330;2023-11-22T04:19:47;3.05;;;2.20;;
3549;SDS011;45572;48.804;8.330;2023-11-22T04:22:15;2.70;;;1.85;;
3549;SDS011;45572;48.804;8.330;2023-11-22T04:24:44;3.75;;;1.92;;
3549;SDS011;45572;48.804;8.330;2023-11-22T04:27:11;2.85;;;1.98;;
3549;SDS011;45572;48.804;8.330;2023-11-22T04:29:40;6.97;;;2.78;;
3549;SDS011;45572;48.804;8.330;2023-11-22T04:32:08;3.80;;;2.25;;
3549;SDS011;45572;48.804;8.330;2023-11-22T04:34:36;3.28;;;2.05;;
3549;SDS011;45572;48.804;8.330;2023-11-22T04:37:04;2.40;;;1.80;;
3549;SDS011;45572;48.804;8.330;2023-11-22T04:39:32;4.50;;;1.98;;
3549;SDS011;45572;48.804;8.330;2023-11-22T04:42:02;4.70;;;2.22;;
3549;SDS011;45572;48.804;8.330;2023-11-22T04:44:29;3.13;;;2.05;;
3549;SDS011;45572;48.804;8.330;2023-11-22T04:46:58;5.22;;;2.83;;
3549;SDS011;45572;48.804;8.330;2023-11-22T04:49:26;2.72;;;2.08;;
3549;SDS011;45572;48.804;8.330;2023-11-22T04:51:54;3.13;;;2.30;;
3549;SDS011;45572;48.804;8.330;2023-11-22T04:54:22;2.75;;;1.58;;
3549;SDS011;45572;48.804;8.330;2023-11-22T04:56:49;4.15;;;2.35;;
3549;SDS011;45572;48.804;8.330;2023-11-22T04:59:18;4.10;;;1.95;;
3549;SDS011;45572;48.804;8.330;2023-11-22T05:01:46;4.78;;;2.95;;
3549;SDS011;45572;48.804;8.330;2023-11-22T05:04:14;4.85;;;3.22;;
3549;SDS011;45572;48.804;8.330;2023-11-22T05:06:44;6.70;;;3.15;;
3549;SDS011;45572;48.804;8.330;2023-11-22T05:09:12;3.92;;;2.47;;
3549;SDS011;45572;48.804;8.330;2023-11-22T05:11:40;4.10;;;2.05;;
3549;SDS011;45572;48.804;8.330;2023-11-22T05:14:08;3.80;;;2.70;;
3549;SDS011;45572;48.804;8.330;2023-11-22T05:16:37;7.95;;;2.70;;
3549;SDS011;45572;48.804;8.330;2023-11-22T05:19:05;3.10;;;2.10;;
3549;SDS011;45572;48.804;8.330;2023-11-22T05:21:33;6.30;;;2.35;;
3549;SDS011;45572;48.804;8.330;2023-11-22T05:24:00;3.13;;;1.83;;
3549;SDS011;45572;48.804;8.330;2023-11-22T05:26:28;4.50;;;2.78;;
3549;SDS011;45572;48.804;8.330;2023-11-22T05:28:56;5.30;;;3.28;;
3549;SDS011;45572;48.804;8.330;2023-11-22T05:31:25;7.10;;;3.65;;
3549;SDS011;45572;48.804;8.330;2023-11-22T05:33:54;5.45;;;3.22;;
3549;SDS011;45572;48.804;8.330;2023-11-22T05:36:22;6.38;;;3.50;;
3549;SDS011;45572;48.804;8.330;2023-11-22T05:38:50;6.30;;;3.60;;
3549;SDS011;45572;48.804;8.330;2023-11-22T05:41:17;3.35;;;2.92;;
3549;SDS011;45572;48.804;8.330;2023-11-22T05:43:45;4.53;;;3.45;;
3549;SDS011;45572;48.804;8.330;2023-11-22T05:46:13;4.25;;;2.83;;
3549;SDS011;45572;48.804;8.330;2023-11-22T05:48:47;4.53;;;2.70;;
3549;SDS011;45572;48.804;8.330;2023-11-22T05:51:18;6.35;;;3.03;;
3549;SDS011;45572;48.804;8.330;2023-11-22T05:53:46;4.10;;;2.95;;
3549;SDS011;45572;48.804;8.330;2023-11-22T05:56:13;6.72;;;3.17;;
3549;SDS011;45572;48.804;8.330;2023-11-22T05:58:43;5.93;;;3.55;;
3549;SDS011;45572;48.804;8.330;2023-11-22T06:01:12;5.95;;;4.40;;
3549;SDS011;45572;48.804;8.330;2023-11-22T06:03:40;4.40;;;3.63;;
3549;SDS011;45572;48.804;8.330;2023-11-22T06:06:08;5.05;;;2.90;;
3549;SDS011;45572;48.804;8.330;2023-11-22T06:08:37;2.83;;;2.03;;
3549;SDS011;45572;48.804;8.330;2023-11-22T06:11:05;5.65;;;3.28;;
3549;SDS011;45572;48.804;8.330;2023-11-22T06:13:33;3.67;;;2.67;;
3549;SDS011;45572;48.804;8.330;2023-11-22T06:16:01;6.13;;;3.53;;
3549;SDS011;45572;48.804;8.330;2023-11-22T06:18:29;18.17;;;2.88;;
3549;SDS011;45572;48.804;8.330;2023-11-22T06:20:57;6.88;;;3.03;;
3549;SDS011;45572;48.804;8.330;2023-11-22T06:23:24;4.22;;;2.67;;
3549;SDS011;45572;48.804;8.330;2023-11-22T06:25:54;3.55;;;2.30;;
3549;SDS011;45572;48.804;8.330;2023-11-22T06:28:21;4.30;;;2.75;;
3549;SDS011;45572;48.804;8.330;2023-11-22T06:30:50;2.55;;;1.98;;
3549;SDS011;45572;48.804;8.330;2023-11-22T06:33:17;5.18;;;2.35;;
3549;SDS011;45572;48.804;8.330;2023-11-22T06:35:45;5.72;;;2.60;;
3549;SDS011;45572;48.804;8.330;2023-11-22T06:38:13;5.90;;;3.00;;
3549;SDS011;45572;48.804;8.330;2023-11-22T06:40:40;4.20;;;2.25;;
3549;SDS011;45572;48.804;8.330;2023-11-22T06:49:05;4.03;;;3.05;;
3549;SDS011;45572;48.804;8.330;2023-11-22T06:51:33;4.05;;;2.53;;
3549;SDS011;45572;48.804;8.330;2023-11-22T06:56:57;2.72;;;1.80;;
3549;SDS011;45572;48.804;8.330;2023-11-22T06:59:25;2.95;;;1.80;;
3549;SDS011;45572;48.804;8.330;2023-11-22T07:01:52;4.35;;;2.53;;
3549;SDS011;45572;48.804;8.330;2023-11-22T07:07:06;5.82;;;2.03;;
3549;SDS011;45572;48.804;8.330;2023-11-22T07:09:37;4.40;;;1.92;;
3549;SDS011;45572;48.804;8.330;2023-11-22T07:12:08;3.47;;;1.75;;
3549;SDS011;45572;48.804;8.330;2023-11-22T07:17:33;3.35;;;2.08;;
3549;SDS011;45572;48.804;8.330;2023-11-22T07:20:01;2.53;;;1.55;;
3549;SDS011;45572;48.804;8.330;2023-11-22T07:22:30;4.25;;;2.38;;
3549;SDS011;45572;48.804;8.330;2023-11-22T07:27:48;3.13;;;1.90;;
3549;SDS011;45572;48.804;8.330;2023-11-22T07:30:16;3.83;;;2.28;;
3549;SDS011;45572;48.804;8.330;2023-11-22T07:38:52;3.72;;;2.20;;
3549;SDS011;45572;48.804;8.330;2023-11-22T07:41:20;4.88;;;2.13;;
3549;SDS011;45572;48.804;8.330;2023-11-22T07:46:44;5.25;;;2.53;;
3549;SDS011;45572;48.804;8.330;2023-11-22T07:49:12;4.13;;;2.10;;
3549;SDS011;45572;48.804;8.330;2023-11-22T07:51:40;4.63;;;2.53;;
3549;SDS011;45572;48.804;8.330;2023-11-22T07:54:09;3.75;;;2.60;;
3549;SDS011;45572;48.804;8.330;2023-11-22T07:56:41;6.63;;;2.63;;
3549;SDS011;45572;48.804;8.330;2023-11-22T07:59:09;4.22;;;2.97;;
3549;SDS011;45572;48.804;8.330;2023-11-22T08:01:37;3.03;;;1.98;;
3549;SDS011;45572;48.804;8.330;2023-11-22T08:04:05;5.18;;;2.30;;
3549;SDS011;45572;48.804;8.330;2023-11-22T08:06:35;2.72;;;1.95;;
3549;SDS011;45572;48.804;8.330;2023-11-22T08:09:05;2.35;;;1.65;;
3549;SDS011;45572;48.804;8.330;2023-11-22T08:11:36;2.08;;;1.88;;
3549;SDS011;45572;48.804;8.330;2023-11-22T08:14:04;3.25;;;2.17;;
3549;SDS011;45572;48.804;8.330;2023-11-22T08:16:32;2.92;;;1.92;;
3549;SDS011;45572;48.804;8.330;2023-11-22T08:19:04;3.80;;;2.10;;
3549;SDS011;45572;48.804;8.330;2023-11-22T08:21:36;4.65;;;2.20;;
3549;SDS011;45572;48.804;8.330;2023-11-22T08:24:05;5.13;;;2.67;;
3549;SDS011;45572;48.804;8.330;2023-11-22T08:26:33;2.97;;;1.95;;
3549;SDS011;45572;48.804;8.330;2023-11-22T08:29:02;3.05;;;1.70;;
3549;SDS011;45572;48.804;8.330;2023-11-22T08:31:31;3.30;;;2.10;;
3549;SDS011;45572;48.804;8.330;2023-11-22T08:33:59;3.97;;;2.50;;
3549;SDS011;45572;48.804;8.330;2023-11-22T08:36:26;2.33;;;1.73;;
3549;SDS011;45572;48.804;8.330;2023-11-22T08:38:55;2.33;;;1.70;;
3549;SDS011;45572;48.804;8.330;2023-11-22T08:41:25;2.38;;;1.42;;
3549;SDS011;45572;48.804;8.330;2023-11-22T08:43:53;2.95;;;1.77;;
3549;SDS011;45572;48.804;8.330;2023-11-22T08:46:22;5.03;;;2.78;;
3549;SDS011;45572;48.804;8.330;2023-11-22T08:48:50;5.07;;;2.03;;
3549;SDS011;45572;48.804;8.330;2023-11-22T08:51:19;4.93;;;2.45;;
3549;SDS011;45572;48.804;8.330;2023-11-22T08:53:47;3.65;;;2.58;;
3549;SDS011;45572;48.804;8.330;2023-11-22T08:56:15;6.15;;;2.35;;
3549;SDS011;45572;48.804;8.330;2023-11-22T08:58:43;3.42;;;1.70;;
3549;SDS011;45572;48.804;8.330;2023-11-22T09:01:11;2.55;;;1.70;;
3549;SDS011;45572;48.804;8.330;2023-11-22T09:03:42;4.20;;;1.90;;
3549;SDS011;45572;48.804;8.330;2023-11-22T09:06:10;5.15;;;2.22;;
3549;SDS011;45572;48.804;8.330;2023-11-22T09:08:39;4.00;;;2.03;;
3549;SDS011;45572;48.804;8.330;2023-11-22T09:11:07;3.35;;;1.45;;
3549;SDS011;45572;48.804;8.330;2023-11-22T09:13:36;5.60;;;1.70;;
3549;SDS011;45572;48.804;8.330;2023-11-22T09:16:04;2.43;;;1.53;;
3549;SDS011;45572;48.804;8.330;2023-11-22T09:18:32;3.00;;;2.13;;
3549;SDS011;45572;48.804;8.330;2023-11-22T09:21:02;2.17;;;1.37;;
3549;SDS011;45572;48.804;8.330;2023-11-22T09:23:31;4.10;;;2.03;;
3549;SDS011;45572;48.804;8.330;2023-11-22T09:25:58;2.37;;;1.70;;
3549;SDS011;45572;48.804;8.330;2023-11-22T09:28:26;3.40;;;2.30;;
3549;SDS011;45572;48.804;8.330;2023-11-22T09:30:54;3.08;;;1.90;;
3549;SDS011;45572;48.804;8.330;2023-11-22T09:33:27;2.00;;;1.63;;
3549;SDS011;45572;48.804;8.330;2023-11-22T09:35:55;2.97;;;1.48;;
3549;SDS011;45572;48.804;8.330;2023-11-22T09:38:25;3.33;;;2.20;;
3549;SDS011;45572;48.804;8.330;2023-11-22T09:40:53;3.30;;;1.97;;
3549;SDS011;45572;48.804;8.330;2023-11-22T09:43:21;2.30;;;1.33;;
3549;SDS011;45572;48.804;8.330;2023-11-22T09:45:50;3.10;;;1.73;;
3549;SDS011;45572;48.804;8.330;2023-11-22T09:48:24;3.23;;;2.20;;
3549;SDS011;45572;48.804;8.330;2023-11-22T09:50:54;2.73;;;1.70;;
3549;SDS011;45572;48.804;8.330;2023-11-22T09:53:30;3.50;;;1.90;;
3549;SDS011;45572;48.804;8.330;2023-11-22T09:56:00;2.60;;;1.57;;
3549;SDS011;45572;48.804;8.330;2023-11-22T09:58:29;5.73;;;2.03;;
3549;SDS011;45572;48.804;8.330;2023-11-22T10:00:59;3.30;;;1.50;;
3549;SDS011;45572;48.804;8.330;2023-11-22T10:03:27;3.20;;;2.17;;
3549;SDS011;45572;48.804;8.330;2023-11-22T10:05:55;4.30;;;1.97;;
3549;SDS011;45572;48.804;8.330;2023-11-22T10:08:25;2.23;;;1.50;;
3549;SDS011;45572;48.804;8.330;2023-11-22T10:10:54;2.77;;;1.30;;
3549;SDS011;45572;48.804;8.330;2023-11-22T10:13:22;2.73;;;1.80;;
3549;SDS011;45572;48.804;8.330;2023-11-22T10:15:51;2.90;;;1.80;;
3549;SDS011;45572;48.804;8.330;2023-11-22T10:18:19;3.05;;;2.40;;
3549;SDS011;45572;48.804;8.330;2023-11-22T10:20:50;2.75;;;1.67;;
3549;SDS011;45572;48.804;8.330;2023-11-22T10:23:19;7.82;;;3.50;;
3549;SDS011;45572;48.804;8.330;2023-11-22T10:25:51;3.80;;;1.60;;
3549;SDS011;45572;48.804;8.330;2023-11-22T10:28:22;3.95;;;1.80;;
3549;SDS011;45572;48.804;8.330;2023-11-22T10:30:54;4.28;;;2.50;;
3549;SDS011;45572;48.804;8.330;2023-11-22T10:33:21;4.07;;;1.55;;
3549;SDS011;45572;48.804;8.330;2023-11-22T10:35:54;3.47;;;1.98;;
3549;SDS011;45572;48.804;8.330;2023-11-22T10:38:23;4.93;;;3.30;;
3549;SDS011;45572;48.804;8.330;2023-11-22T10:40:52;3.33;;;1.98;;
3549;SDS011;45572;48.804;8.330;2023-11-22T10:43:25;3.83;;;2.03;;
3549;SDS011;45572;48.804;8.330;2023-11-22T10:45:55;3.00;;;2.05;;
3549;SDS011;45572;48.804;8.330;2023-11-22T10:48:25;2.92;;;2.15;;
3549;SDS011;45572;48.804;8.330;2023-11-22T10:50:53;2.97;;;2.10;;
3549;SDS011;45572;48.804;8.330;2023-11-22T10:53:27;10.75;;;2.63;;
3549;SDS011;45572;48.804;8.330;2023-11-22T10:56:03;2.45;;;1.98;;
3549;SDS011;45572;48.804;8.330;2023-11-22T10:58:40;2.97;;;1.90;;
3549;SDS011;45572;48.804;8.330;2023-11-22T11:01:15;3.83;;;2.53;;
3549;SDS011;45572;48.804;8.330;2023-11-22T11:03:45;3.10;;;2.10;;
3549;SDS011;45572;48.804;8.330;2023-11-22T11:06:19;4.28;;;2.38;;
3549;SDS011;45572;48.804;8.330;2023-11-22T11:08:54;2.55;;;1.70;;
3549;SDS011;45572;48.804;8.330;2023-11-22T11:11:25;2.75;;;2.10;;
3549;SDS011;45572;48.804;8.330;2023-11-22T11:13:56;4.32;;;2.28;;
3549;SDS011;45572;48.804;8.330;2023-11-22T11:16:24;3.40;;;2.15;;
3549;SDS011;45572;48.804;8.330;2023-11-22T11:18:53;2.90;;;2.17;;
3549;SDS011;45572;48.804;8.330;2023-11-22T11:21:22;2.72;;;2.00;;
3549;SDS011;45572;48.804;8.330;2023-11-22T11:23:50;4.88;;;2.45;;
3549;SDS011;45572;48.804;8.330;2023-11-22T11:26:24;3.60;;;2.10;;
3549;SDS011;45572;48.804;8.330;2023-11-22T11:28:52;5.93;;;2.60;;
3549;SDS011;45572;48.804;8.330;2023-11-22T11:31:22;2.67;;;2.00;;
3549;SDS011;45572;48.804;8.330;2023-11-22T11:33:53;3.72;;;1.90;;
3549;SDS011;45572;48.804;8.330;2023-11-22T11:36:22;4.97;;;2.60;;
3549;SDS011;45572;48.804;8.330;2023-11-22T11:38:54;5.18;;;2.90;;
3549;SDS011;45572;48.804;8.330;2023-11-22T11:41:24;5.18;;;3.13;;
3549;SDS011;45572;48.804;8.330;2023-11-22T11:43:55;7.28;;;3.47;;
3549;SDS011;45572;48.804;8.330;2023-11-22T11:46:25;3.53;;;2.45;;
3549;SDS011;45572;48.804;8.330;2023-11-22T11:48:54;5.80;;;3.13;;
3549;SDS011;45572;48.804;8.330;2023-11-22T11:51:23;3.65;;;2.90;;
3549;SDS011;45572;48.804;8.330;2023-11-22T11:53:51;4.03;;;2.50;;
3549;SDS011;45572;48.804;8.330;2023-11-22T11:56:20;6.43;;;2.20;;
3549;SDS011;45572;48.804;8.330;2023-11-22T11:58:49;3.30;;;1.83;;
3549;SDS011;45572;48.804;8.330;2023-11-22T12:01:18;4.75;;;3.10;;
3549;SDS011;45572;48.804;8.330;2023-11-22T12:03:49;5.78;;;2.90;;
3549;SDS011;45572;48.804;8.330;2023-11-22T12:06:19;4.47;;;2.80;;
3549;SDS011;45572;48.804;8.330;2023-11-22T12:08:48;4.85;;;2.40;;
3549;SDS011;45572;48.804;8.330;2023-11-22T12:11:16;3.90;;;2.85;;
3549;SDS011;45572;48.804;8.330;2023-11-22T12:13:44;3.55;;;2.80;;
3549;SDS011;45572;48.804;8.330;2023-11-22T12:16:15;5.53;;;3.83;;
3549;SDS011;45572;48.804;8.330;2023-11-22T12:18:45;6.15;;;3.38;;
3549;SDS011;45572;48.804;8.330;2023-11-22T12:21:16;4.45;;;3.40;;
3549;SDS011;45572;48.804;8.330;2023-11-22T12:23:45;7.93;;;4.60;;
3549;SDS011;45572;48.804;8.330;2023-11-22T12:26:16;6.93;;;4.15;;
3549;SDS011;45572;48.804;8.330;2023-11-22T12:28:45;4.28;;;3.00;;
3549;SDS011;45572;48.804;8.330;2023-11-22T12:31:28;5.22;;;3.13;;
3549;SDS011;45572;48.804;8.330;2023-11-22T12:34:00;4.38;;;3.17;;
3549;SDS011;45572;48.804;8.330;2023-11-22T12:36:30;6.20;;;2.83;;
3549;SDS011;45572;48.804;8.330;2023-11-22T12:38:59;5.10;;;3.20;;
3549;SDS011;45572;48.804;8.330;2023-11-22T12:41:27;5.38;;;3.30;;
3549;SDS011;45572;48.804;8.330;2023-11-22T12:44:01;5.47;;;3.22;;
3549;SDS011;45572;48.804;8.330;2023-11-22T12:46:44;6.05;;;2.50;;
3549;SDS011;45572;48.804;8.330;2023-11-22T12:49:12;5.63;;;2.85;;
3549;SDS011;45572;48.804;8.330;2023-11-22T12:51:46;6.32;;;3.22;;
3549;SDS011;45572;48.804;8.330;2023-11-22T12:54:15;5.07;;;3.20;;
3549;SDS011;45572;48.804;8.330;2023-11-22T12:56:46;8.02;;;3.75;;
3549;SDS011;45572;48.804;8.330;2023-11-22T12:59:16;5.43;;;3.70;;
3549;SDS011;45572;48.804;8.330;2023-11-22T13:01:44;7.28;;;3.42;;
3549;SDS011;45572;48.804;8.330;2023-11-22T13:04:13;68.47;;;19.55;;
3549;SDS011;45572;48.804;8.330;2023-11-22T13:06:42;15.43;;;4.47;;
3549;SDS011;45572;48.804;8.330;2023-11-22T13:09:11;8.88;;;3.15;;
3549;SDS011;45572;48.804;8.330;2023-11-22T13:11:42;6.10;;;3.15;;
3549;SDS011;45572;48.804;8.330;2023-11-22T13:14:10;6.82;;;4.05;;
3549;SDS011;45572;48.804;8.330;2023-11-22T13:16:43;5.35;;;3.67;;
3549;SDS011;45572;48.804;8.330;2023-11-22T13:19:11;5.95;;;3.40;;
3549;SDS011;45572;48.804;8.330;2023-11-22T13:21:39;5.22;;;3.25;;
3549;SDS011;45572;48.804;8.330;2023-11-22T13:24:07;6.70;;;3.58;;
3549;SDS011;45572;48.804;8.330;2023-11-22T13:26:38;6.03;;;3.60;;
3549;SDS011;45572;48.804;8.330;2023-11-22T13:29:06;4.85;;;2.78;;
3549;SDS011;45572;48.804;8.330;2023-11-22T13:31:34;4.97;;;2.97;;
3549;SDS011;45572;48.804;8.330;2023-11-22T13:34:01;3.20;;;2.00;;
3549;SDS011;45572;48.804;8.330;2023-11-22T13:36:29;5.53;;;2.40;;
3549;SDS011;45572;48.804;8.330;2023-11-22T13:38:58;5.05;;;2.83;;
3549;SDS011;45572;48.804;8.330;2023-11-22T13:41:26;5.43;;;2.78;;
3549;SDS011;45572;48.804;8.330;2023-11-22T13:43:55;5.65;;;2.55;;
3549;SDS011;45572;48.804;8.330;2023-11-22T13:46:23;3.50;;;2.58;;
3549;SDS011;45572;48.804;8.330;2023-11-22T13:48:50;2.67;;;2.03;;
3549;SDS011;45572;48.804;8.330;2023-11-22T13:51:18;4.63;;;2.75;;
3549;SDS011;45572;48.804;8.330;2023-11-22T13:53:46;3.60;;;2.90;;
3549;SDS011;45572;48.804;8.330;2023-11-22T13:56:19;7.53;;;4.00;;
3549;SDS011;45572;48.804;8.330;2023-11-22T13:58:47;5.93;;;3.28;;
3549;SDS011;45572;48.804;8.330;2023-11-22T14:01:17;4.82;;;2.85;;
3549;SDS011;45572;48.804;8.330;2023-11-22T14:03:49;4.90;;;3.55;;
3549;SDS011;45572;48.804;8.330;2023-11-22T14:06:18;4.22;;;2.72;;
3549;SDS011;45572;48.804;8.330;2023-11-22T14:08:46;3.50;;;2.38;;
3549;SDS011;45572;48.804;8.330;2023-11-22T14:11:17;5.28;;;3.00;;
3549;SDS011;45572;48.804;8.330;2023-11-22T14:13:44;5.25;;;3.20;;
3549;SDS011;45572;48.804;8.330;2023-11-22T14:16:12;8.70;;;3.33;;
3549;SDS011;45572;48.804;8.330;2023-11-22T14:18:42;4.18;;;2.75;;
3549;SDS011;45572;48.804;8.330;2023-11-22T14:21:11;3.97;;;2.92;;
3549;SDS011;45572;48.804;8.330;2023-11-22T14:23:39;5.43;;;3.00;;
3549;SDS011;45572;48.804;8.330;2023-11-22T14:26:07;7.07;;;3.15;;
3549;SDS011;45572;48.804;8.330;2023-11-22T14:28:35;5.70;;;2.58;;
3549;SDS011;45572;48.804;8.330;2023-11-22T14:31:03;5.15;;;2.70;;
3549;SDS011;45572;48.804;8.330;2023-11-22T14:33:33;5.82;;;3.90;;
3549;SDS011;45572;48.804;8.330;2023-11-22T14:36:03;10.75;;;3.08;;
3549;SDS011;45572;48.804;8.330;2023-11-22T14:38:31;4.50;;;2.85;;
3549;SDS011;45572;48.804;8.330;2023-11-22T14:40:59;6.97;;;3.47;;
3549;SDS011;45572;48.804;8.330;2023-11-22T14:43:27;6.97;;;3.15;;
3549;SDS011;45572;48.804;8.330;2023-11-22T14:45:55;4.50;;;2.45;;
3549;SDS011;45572;48.804;8.330;2023-11-22T14:48:22;5.38;;;3.05;;
3549;SDS011;45572;48.804;8.330;2023-11-22T14:50:50;4.50;;;2.70;;
3549;SDS011;45572;48.804;8.330;2023-11-22T14:53:19;6.70;;;3.33;;
3549;SDS011;45572;48.804;8.330;2023-11-22T14:55:47;5.30;;;3.13;;
3549;SDS011;45572;48.804;8.330;2023-11-22T14:58:15;5.18;;;3.20;;
3549;SDS011;45572;48.804;8.330;2023-11-22T15:00:42;4.88;;;2.70;;
3549;SDS011;45572;48.804;8.330;2023-11-22T15:03:10;4.03;;;2.40;;
3549;SDS011;45572;48.804;8.330;2023-11-22T15:05:39;4.95;;;2.80;;
3549;SDS011;45572;48.804;8.330;2023-11-22T15:08:07;5.40;;;2.65;;
3549;SDS011;45572;48.804;8.330;2023-11-22T15:10:36;5.68;;;3.33;;
3549;SDS011;45572;48.804;8.330;2023-11-22T15:13:05;4.50;;;3.03;;
3549;SDS011;45572;48.804;8.330;2023-11-22T15:15:33;5.45;;;3.28;;
3549;SDS011;45572;48.804;8.330;2023-11-22T15:18:01;7.40;;;4.18;;
3549;SDS011;45572;48.804;8.330;2023-11-22T15:20:30;9.98;;;5.78;;
3549;SDS011;45572;48.804;8.330;2023-11-22T15:22:58;9.23;;;5.15;;
3549;SDS011;45572;48.804;8.330;2023-11-22T15:25:26;7.10;;;4.50;;
3549;SDS011;45572;48.804;8.330;2023-11-22T15:27:55;8.00;;;3.92;;
3549;SDS011;45572;48.804;8.330;2023-11-22T15:30:25;6.35;;;3.42;;
3549;SDS011;45572;48.804;8.330;2023-11-22T15:32:53;7.50;;;4.30;;
3549;SDS011;45572;48.804;8.330;2023-11-22T15:35:21;8.40;;;5.53;;
3549;SDS011;45572;48.804;8.330;2023-11-22T15:37:48;8.00;;;4.60;;